sensor_id;sensor_type;location;lat;lon;timestamp;P1;durP1;ratioP1;P2;durP2;ratioP2
72569;SDS011;60594;50.204;8.844;2023-02-26T00:00:07;4.78;;;1.90;;
72569;SDS011;60594;50.204;8.844;2023-02-26T00:02:58;5.05;;;1.50;;
72569;SDS011;60594;50.204;8.844;2023-02-26T00:05:24;3.63;;;1.67;;
72569;SDS011;60594;50.204;8.844;2023-02-26T00:07:51;4.47;;;1.88;;
72569;SDS011;60594;50.204;8.844;2023-02-26T00:10:18;3.63;;;1.60;;
72569;SDS011;60594;50.204;8.844;2023-02-26T00:12:45;4.50;;;1.90;;
72569;SDS011;60594;50.204;8.844;2023-02-26T00:15:12;4.28;;;1.90;;
72569;SDS011;60594;50.204;8.844;2023-02-26T00:20:14;3.85;;;1.77;;
72569;SDS011;60594;50.204;8.844;2023-02-26T00:22:42;3.45;;;1.65;;
72569;SDS011;60594;50.204;8.844;2023-02-26T00:25:09;3.47;;;1.90;;
72569;SDS011;60594;50.204;8.844;2023-02-26T00:27:37;4.65;;;1.98;;
72569;SDS011;60594;50.204;8.844;2023-02-26T00:30:04;3.20;;;1.75;;
72569;SDS011;60594;50.204;8.844;2023-02-26T00:32:33;4.70;;;1.95;;
72569;SDS011;60594;50.204;8.844;2023-02-26T00:35:00;2.75;;;1.35;;
72569;SDS011;60594;50.204;8.844;2023-02-26T00:43:09;2.88;;;1.55;;
72569;SDS011;60594;50.204;8.844;2023-02-26T00:46:02;6.97;;;1.70;;
72569;SDS011;60594;50.204;8.844;2023-02-26T00:51:22;3.83;;;1.33;;
72569;SDS011;60594;50.204;8.844;2023-02-26T00:54:04;2.42;;;1.10;;
72569;SDS011;60594;50.204;8.844;2023-02-26T00:56:54;4.18;;;1.92;;
72569;SDS011;60594;50.204;8.844;2023-02-26T00:59:22;3.83;;;1.73;;
72569;SDS011;60594;50.204;8.844;2023-02-26T01:01:49;8.00;;;1.77;;
72569;SDS011;60594;50.204;8.844;2023-02-26T01:04:18;5.75;;;1.80;;
72569;SDS011;60594;50.204;8.844;2023-02-26T01:06:48;4.50;;;1.80;;
72569;SDS011;60594;50.204;8.844;2023-02-26T01:11:55;4.10;;;1.55;;
72569;SDS011;60594;50.204;8.844;2023-02-26T01:14:23;5.22;;;1.45;;
72569;SDS011;60594;50.204;8.844;2023-02-26T01:16:52;3.38;;;1.65;;
72569;SDS011;60594;50.204;8.844;2023-02-26T01:22:19;3.55;;;1.60;;
72569;SDS011;60594;50.204;8.844;2023-02-26T01:27:34;5.93;;;1.10;;
72569;SDS011;60594;50.204;8.844;2023-02-26T01:30:00;4.10;;;1.83;;
72569;SDS011;60594;50.204;8.844;2023-02-26T01:38:06;3.35;;;1.60;;
72569;SDS011;60594;50.204;8.844;2023-02-26T01:43:27;3.30;;;1.45;;
72569;SDS011;60594;50.204;8.844;2023-02-26T01:49:17;3.88;;;1.73;;
72569;SDS011;60594;50.204;8.844;2023-02-26T01:51:47;4.60;;;1.42;;
72569;SDS011;60594;50.204;8.844;2023-02-26T01:54:21;3.58;;;1.60;;
72569;SDS011;60594;50.204;8.844;2023-02-26T01:57:01;4.35;;;1.50;;
72569;SDS011;60594;50.204;8.844;2023-02-26T01:59:35;2.90;;;1.45;;
72569;SDS011;60594;50.204;8.844;2023-02-26T02:02:06;4.18;;;1.55;;
72569;SDS011;60594;50.204;8.844;2023-02-26T02:04:35;3.47;;;1.55;;
72569;SDS011;60594;50.204;8.844;2023-02-26T02:07:03;2.33;;;1.25;;
72569;SDS011;60594;50.204;8.844;2023-02-26T02:09:31;2.92;;;1.50;;
72569;SDS011;60594;50.204;8.844;2023-02-26T02:14:59;1.92;;;0.98;;
72569;SDS011;60594;50.204;8.844;2023-02-26T02:17:36;2.95;;;0.63;;
72569;SDS011;60594;50.204;8.844;2023-02-26T02:23:11;2.40;;;1.20;;
72569;SDS011;60594;50.204;8.844;2023-02-26T02:28:44;2.83;;;0.80;;
72569;SDS011;60594;50.204;8.844;2023-02-26T02:31:34;1.55;;;1.08;;
72569;SDS011;60594;50.204;8.844;2023-02-26T02:34:10;1.55;;;0.73;;
72569;SDS011;60594;50.204;8.844;2023-02-26T02:39:19;0.73;;;0.52;;
72569;SDS011;60594;50.204;8.844;2023-02-26T02:41:52;1.98;;;0.85;;
72569;SDS011;60594;50.204;8.844;2023-02-26T02:44:24;2.25;;;0.80;;
72569;SDS011;60594;50.204;8.844;2023-02-26T02:46:53;1.60;;;0.95;;
72569;SDS011;60594;50.204;8.844;2023-02-26T02:49:26;4.32;;;0.98;;
72569;SDS011;60594;50.204;8.844;2023-02-26T02:52:16;1.42;;;0.65;;
72569;SDS011;60594;50.204;8.844;2023-02-26T02:54:53;3.00;;;1.00;;
72569;SDS011;60594;50.204;8.844;2023-02-26T02:57:32;1.30;;;0.60;;
72569;SDS011;60594;50.204;8.844;2023-02-26T03:00:04;1.75;;;0.80;;
72569;SDS011;60594;50.204;8.844;2023-02-26T03:02:38;2.45;;;0.75;;
72569;SDS011;60594;50.204;8.844;2023-02-26T03:05:12;2.22;;;0.57;;
72569;SDS011;60594;50.204;8.844;2023-02-26T03:07:53;1.58;;;0.90;;
72569;SDS011;60594;50.204;8.844;2023-02-26T03:10:24;1.55;;;0.95;;
72569;SDS011;60594;50.204;8.844;2023-02-26T03:12:51;1.77;;;0.93;;
72569;SDS011;60594;50.204;8.844;2023-02-26T03:15:20;1.48;;;0.60;;
72569;SDS011;60594;50.204;8.844;2023-02-26T03:20:53;1.52;;;0.80;;
72569;SDS011;60594;50.204;8.844;2023-02-26T03:23:31;1.98;;;0.88;;
72569;SDS011;60594;50.204;8.844;2023-02-26T03:26:07;1.75;;;1.00;;
72569;SDS011;60594;50.204;8.844;2023-02-26T03:28:40;1.77;;;0.98;;
72569;SDS011;60594;50.204;8.844;2023-02-26T03:31:16;1.63;;;0.88;;
72569;SDS011;60594;50.204;8.844;2023-02-26T03:34:06;1.85;;;1.15;;
72569;SDS011;60594;50.204;8.844;2023-02-26T03:36:43;2.47;;;1.20;;
72569;SDS011;60594;50.204;8.844;2023-02-26T03:39:36;2.10;;;0.98;;
72569;SDS011;60594;50.204;8.844;2023-02-26T03:44:53;4.65;;;0.90;;
72569;SDS011;60594;50.204;8.844;2023-02-26T03:47:23;2.45;;;0.82;;
72569;SDS011;60594;50.204;8.844;2023-02-26T03:49:54;3.05;;;1.50;;
72569;SDS011;60594;50.204;8.844;2023-02-26T03:52:26;3.53;;;1.00;;
72569;SDS011;60594;50.204;8.844;2023-02-26T03:55:12;2.55;;;1.10;;
72569;SDS011;60594;50.204;8.844;2023-02-26T03:58:09;2.90;;;1.13;;
72569;SDS011;60594;50.204;8.844;2023-02-26T04:00:43;2.25;;;1.10;;
72569;SDS011;60594;50.204;8.844;2023-02-26T04:03:16;6.20;;;1.30;;
72569;SDS011;60594;50.204;8.844;2023-02-26T04:05:47;2.92;;;1.05;;
72569;SDS011;60594;50.204;8.844;2023-02-26T04:08:19;2.13;;;0.95;;
72569;SDS011;60594;50.204;8.844;2023-02-26T04:10:52;3.95;;;1.15;;
72569;SDS011;60594;50.204;8.844;2023-02-26T04:13:22;3.40;;;1.65;;
72569;SDS011;60594;50.204;8.844;2023-02-26T04:15:50;3.88;;;1.20;;
72569;SDS011;60594;50.204;8.844;2023-02-26T04:18:17;2.25;;;1.15;;
72569;SDS011;60594;50.204;8.844;2023-02-26T04:20:43;1.88;;;0.90;;
72569;SDS011;60594;50.204;8.844;2023-02-26T04:23:10;3.00;;;1.20;;
72569;SDS011;60594;50.204;8.844;2023-02-26T04:25:38;2.15;;;1.17;;
72569;SDS011;60594;50.204;8.844;2023-02-26T04:28:06;3.55;;;1.00;;
72569;SDS011;60594;50.204;8.844;2023-02-26T04:30:32;2.63;;;1.33;;
72569;SDS011;60594;50.204;8.844;2023-02-26T04:33:00;3.83;;;1.42;;
72569;SDS011;60594;50.204;8.844;2023-02-26T04:35:27;2.95;;;1.20;;
72569;SDS011;60594;50.204;8.844;2023-02-26T04:37:56;2.45;;;1.17;;
72569;SDS011;60594;50.204;8.844;2023-02-26T04:40:22;2.25;;;1.17;;
72569;SDS011;60594;50.204;8.844;2023-02-26T04:42:49;2.42;;;1.05;;
72569;SDS011;60594;50.204;8.844;2023-02-26T04:45:21;2.97;;;1.23;;
72569;SDS011;60594;50.204;8.844;2023-02-26T04:47:47;3.65;;;1.10;;
72569;SDS011;60594;50.204;8.844;2023-02-26T04:50:14;4.25;;;1.20;;
72569;SDS011;60594;50.204;8.844;2023-02-26T04:52:42;2.92;;;1.42;;
72569;SDS011;60594;50.204;8.844;2023-02-26T04:55:09;2.15;;;1.10;;
72569;SDS011;60594;50.204;8.844;2023-02-26T04:57:38;4.40;;;1.20;;
72569;SDS011;60594;50.204;8.844;2023-02-26T05:00:05;6.40;;;1.83;;
72569;SDS011;60594;50.204;8.844;2023-02-26T05:02:34;2.65;;;1.10;;
72569;SDS011;60594;50.204;8.844;2023-02-26T05:05:01;3.45;;;1.45;;
72569;SDS011;60594;50.204;8.844;2023-02-26T05:07:28;2.10;;;0.98;;
72569;SDS011;60594;50.204;8.844;2023-02-26T05:09:55;2.83;;;1.25;;
72569;SDS011;60594;50.204;8.844;2023-02-26T05:12:22;3.78;;;1.70;;
72569;SDS011;60594;50.204;8.844;2023-02-26T05:14:48;3.28;;;1.30;;
72569;SDS011;60594;50.204;8.844;2023-02-26T05:17:15;3.45;;;1.65;;
72569;SDS011;60594;50.204;8.844;2023-02-26T05:19:42;3.70;;;1.70;;
72569;SDS011;60594;50.204;8.844;2023-02-26T05:22:08;1.90;;;0.93;;
72569;SDS011;60594;50.204;8.844;2023-02-26T05:24:35;3.90;;;1.23;;
72569;SDS011;60594;50.204;8.844;2023-02-26T05:27:02;2.55;;;1.40;;
72569;SDS011;60594;50.204;8.844;2023-02-26T05:29:30;2.22;;;1.00;;
72569;SDS011;60594;50.204;8.844;2023-02-26T05:31:58;3.30;;;1.52;;
72569;SDS011;60594;50.204;8.844;2023-02-26T05:34:24;2.75;;;1.42;;
72569;SDS011;60594;50.204;8.844;2023-02-26T05:36:51;2.72;;;1.55;;
72569;SDS011;60594;50.204;8.844;2023-02-26T05:39:17;1.65;;;0.90;;
72569;SDS011;60594;50.204;8.844;2023-02-26T05:41:44;2.88;;;1.15;;
72569;SDS011;60594;50.204;8.844;2023-02-26T05:44:11;2.58;;;1.35;;
72569;SDS011;60594;50.204;8.844;2023-02-26T05:46:38;2.65;;;1.45;;
72569;SDS011;60594;50.204;8.844;2023-02-26T05:49:04;3.05;;;1.10;;
72569;SDS011;60594;50.204;8.844;2023-02-26T05:51:31;2.80;;;1.10;;
72569;SDS011;60594;50.204;8.844;2023-02-26T05:53:57;3.53;;;1.38;;
72569;SDS011;60594;50.204;8.844;2023-02-26T05:56:24;3.95;;;1.48;;
72569;SDS011;60594;50.204;8.844;2023-02-26T05:58:50;3.20;;;1.70;;
72569;SDS011;60594;50.204;8.844;2023-02-26T06:01:17;8.63;;;1.95;;
72569;SDS011;60594;50.204;8.844;2023-02-26T06:03:43;3.05;;;1.10;;
72569;SDS011;60594;50.204;8.844;2023-02-26T06:06:10;2.50;;;1.42;;
72569;SDS011;60594;50.204;8.844;2023-02-26T06:08:37;2.25;;;1.10;;
72569;SDS011;60594;50.204;8.844;2023-02-26T06:11:04;2.40;;;1.25;;
72569;SDS011;60594;50.204;8.844;2023-02-26T06:13:30;2.92;;;1.65;;
72569;SDS011;60594;50.204;8.844;2023-02-26T06:15:57;4.80;;;1.55;;
72569;SDS011;60594;50.204;8.844;2023-02-26T06:18:23;5.88;;;1.35;;
72569;SDS011;60594;50.204;8.844;2023-02-26T06:20:50;2.97;;;1.80;;
72569;SDS011;60594;50.204;8.844;2023-02-26T06:23:16;2.65;;;1.33;;
72569;SDS011;60594;50.204;8.844;2023-02-26T06:25:43;2.63;;;1.60;;
72569;SDS011;60594;50.204;8.844;2023-02-26T06:28:10;3.60;;;1.33;;
72569;SDS011;60594;50.204;8.844;2023-02-26T06:30:37;2.95;;;1.23;;
72569;SDS011;60594;50.204;8.844;2023-02-26T06:33:03;2.85;;;1.27;;
72569;SDS011;60594;50.204;8.844;2023-02-26T06:35:30;2.75;;;1.17;;
72569;SDS011;60594;50.204;8.844;2023-02-26T06:37:56;2.33;;;1.48;;
72569;SDS011;60594;50.204;8.844;2023-02-26T06:40:23;2.20;;;1.20;;
72569;SDS011;60594;50.204;8.844;2023-02-26T06:42:49;3.45;;;1.52;;
72569;SDS011;60594;50.204;8.844;2023-02-26T06:45:16;2.90;;;1.42;;
72569;SDS011;60594;50.204;8.844;2023-02-26T06:47:42;3.63;;;1.63;;
72569;SDS011;60594;50.204;8.844;2023-02-26T06:50:09;4.43;;;1.58;;
72569;SDS011;60594;50.204;8.844;2023-02-26T06:52:37;2.95;;;1.40;;
72569;SDS011;60594;50.204;8.844;2023-02-26T06:55:04;4.47;;;1.95;;
72569;SDS011;60594;50.204;8.844;2023-02-26T06:57:30;2.75;;;1.15;;
72569;SDS011;60594;50.204;8.844;2023-02-26T06:59:57;4.60;;;1.98;;
72569;SDS011;60594;50.204;8.844;2023-02-26T07:02:23;5.45;;;2.50;;
72569;SDS011;60594;50.204;8.844;2023-02-26T07:04:50;5.97;;;3.30;;
72569;SDS011;60594;50.204;8.844;2023-02-26T07:07:16;3.47;;;2.20;;
72569;SDS011;60594;50.204;8.844;2023-02-26T07:09:43;3.38;;;1.40;;
72569;SDS011;60594;50.204;8.844;2023-02-26T07:12:10;3.10;;;1.33;;
72569;SDS011;60594;50.204;8.844;2023-02-26T07:14:36;2.55;;;1.30;;
72569;SDS011;60594;50.204;8.844;2023-02-26T07:17:03;1.75;;;0.93;;
72569;SDS011;60594;50.204;8.844;2023-02-26T07:19:29;2.80;;;1.30;;
72569;SDS011;60594;50.204;8.844;2023-02-26T07:21:56;2.88;;;1.40;;
72569;SDS011;60594;50.204;8.844;2023-02-26T07:24:22;4.03;;;1.58;;
72569;SDS011;60594;50.204;8.844;2023-02-26T07:26:49;2.70;;;2.08;;
72569;SDS011;60594;50.204;8.844;2023-02-26T07:29:15;3.50;;;1.40;;
72569;SDS011;60594;50.204;8.844;2023-02-26T07:31:42;4.93;;;1.55;;
72569;SDS011;60594;50.204;8.844;2023-02-26T07:34:08;2.25;;;1.35;;
72569;SDS011;60594;50.204;8.844;2023-02-26T07:36:35;2.63;;;1.27;;
72569;SDS011;60594;50.204;8.844;2023-02-26T07:39:02;4.82;;;1.65;;
72569;SDS011;60594;50.204;8.844;2023-02-26T07:41:28;3.53;;;1.27;;
72569;SDS011;60594;50.204;8.844;2023-02-26T07:43:55;3.08;;;1.48;;
72569;SDS011;60594;50.204;8.844;2023-02-26T07:46:21;5.47;;;1.25;;
72569;SDS011;60594;50.204;8.844;2023-02-26T07:48:47;2.70;;;1.42;;
72569;SDS011;60594;50.204;8.844;2023-02-26T07:51:14;3.65;;;1.33;;
72569;SDS011;60594;50.204;8.844;2023-02-26T07:53:40;4.22;;;1.60;;
72569;SDS011;60594;50.204;8.844;2023-02-26T07:56:07;3.53;;;1.40;;
72569;SDS011;60594;50.204;8.844;2023-02-26T07:58:33;3.92;;;1.67;;
72569;SDS011;60594;50.204;8.844;2023-02-26T08:01:00;2.45;;;1.17;;
72569;SDS011;60594;50.204;8.844;2023-02-26T08:03:26;7.13;;;1.85;;
72569;SDS011;60594;50.204;8.844;2023-02-26T08:05:53;2.95;;;1.23;;
72569;SDS011;60594;50.204;8.844;2023-02-26T08:08:19;6.03;;;1.52;;
72569;SDS011;60594;50.204;8.844;2023-02-26T08:10:46;2.50;;;1.13;;
72569;SDS011;60594;50.204;8.844;2023-02-26T08:13:12;4.07;;;1.60;;
72569;SDS011;60594;50.204;8.844;2023-02-26T08:15:39;2.70;;;1.30;;
72569;SDS011;60594;50.204;8.844;2023-02-26T08:18:07;3.10;;;1.30;;
72569;SDS011;60594;50.204;8.844;2023-02-26T08:20:33;3.03;;;1.23;;
72569;SDS011;60594;50.204;8.844;2023-02-26T08:23:00;2.88;;;1.60;;
72569;SDS011;60594;50.204;8.844;2023-02-26T08:25:27;2.40;;;1.10;;
72569;SDS011;60594;50.204;8.844;2023-02-26T08:27:53;3.05;;;1.52;;
72569;SDS011;60594;50.204;8.844;2023-02-26T08:32:49;2.28;;;1.10;;
72569;SDS011;60594;50.204;8.844;2023-02-26T08:35:15;2.17;;;0.82;;
72569;SDS011;60594;50.204;8.844;2023-02-26T08:37:42;2.33;;;1.15;;
72569;SDS011;60594;50.204;8.844;2023-02-26T08:40:09;2.97;;;1.55;;
72569;SDS011;60594;50.204;8.844;2023-02-26T08:42:36;2.22;;;1.13;;
72569;SDS011;60594;50.204;8.844;2023-02-26T08:45:03;2.72;;;1.38;;
72569;SDS011;60594;50.204;8.844;2023-02-26T08:47:30;4.70;;;1.50;;
72569;SDS011;60594;50.204;8.844;2023-02-26T08:49:56;2.08;;;1.00;;
72569;SDS011;60594;50.204;8.844;2023-02-26T08:52:24;3.03;;;1.48;;
72569;SDS011;60594;50.204;8.844;2023-02-26T08:54:50;4.68;;;1.42;;
72569;SDS011;60594;50.204;8.844;2023-02-26T08:57:18;3.20;;;1.48;;
72569;SDS011;60594;50.204;8.844;2023-02-26T08:59:44;2.00;;;0.90;;
72569;SDS011;60594;50.204;8.844;2023-02-26T09:02:11;3.50;;;1.30;;
72569;SDS011;60594;50.204;8.844;2023-02-26T09:04:39;2.05;;;1.05;;
72569;SDS011;60594;50.204;8.844;2023-02-26T09:07:05;4.32;;;1.60;;
72569;SDS011;60594;50.204;8.844;2023-02-26T09:09:32;2.80;;;1.38;;
72569;SDS011;60594;50.204;8.844;2023-02-26T09:11:59;3.95;;;1.30;;
72569;SDS011;60594;50.204;8.844;2023-02-26T09:14:25;2.78;;;1.23;;
72569;SDS011;60594;50.204;8.844;2023-02-26T09:16:52;3.10;;;1.30;;
72569;SDS011;60594;50.204;8.844;2023-02-26T09:19:18;4.05;;;1.50;;
72569;SDS011;60594;50.204;8.844;2023-02-26T09:21:45;4.43;;;1.52;;
72569;SDS011;60594;50.204;8.844;2023-02-26T09:24:12;3.92;;;1.45;;
72569;SDS011;60594;50.204;8.844;2023-02-26T09:26:39;3.20;;;1.20;;
72569;SDS011;60594;50.204;8.844;2023-02-26T09:29:05;2.17;;;1.13;;
72569;SDS011;60594;50.204;8.844;2023-02-26T09:31:32;2.55;;;1.33;;
72569;SDS011;60594;50.204;8.844;2023-02-26T09:33:58;3.05;;;1.60;;
72569;SDS011;60594;50.204;8.844;2023-02-26T09:36:25;3.78;;;1.17;;
72569;SDS011;60594;50.204;8.844;2023-02-26T09:38:52;3.15;;;1.17;;
72569;SDS011;60594;50.204;8.844;2023-02-26T09:44:20;2.90;;;1.70;;
72569;SDS011;60594;50.204;8.844;2023-02-26T09:47:17;3.08;;;1.15;;
72569;SDS011;60594;50.204;8.844;2023-02-26T09:50:05;2.38;;;1.25;;
72569;SDS011;60594;50.204;8.844;2023-02-26T09:55:44;2.25;;;1.08;;
72569;SDS011;60594;50.204;8.844;2023-02-26T10:00:57;1.85;;;1.02;;
72569;SDS011;60594;50.204;8.844;2023-02-26T10:03:55;1.77;;;0.85;;
72569;SDS011;60594;50.204;8.844;2023-02-26T10:06:33;1.63;;;0.90;;
72569;SDS011;60594;50.204;8.844;2023-02-26T10:09:41;3.92;;;1.27;;
72569;SDS011;60594;50.204;8.844;2023-02-26T10:12:17;2.58;;;1.15;;
72569;SDS011;60594;50.204;8.844;2023-02-26T10:14:51;2.38;;;1.30;;
72569;SDS011;60594;50.204;8.844;2023-02-26T10:23:06;1.65;;;0.80;;
72569;SDS011;60594;50.204;8.844;2023-02-26T10:26:03;2.53;;;0.85;;
72569;SDS011;60594;50.204;8.844;2023-02-26T10:28:46;2.45;;;1.10;;
72569;SDS011;60594;50.204;8.844;2023-02-26T10:31:51;2.15;;;0.73;;
72569;SDS011;60594;50.204;8.844;2023-02-26T10:40:31;1.75;;;0.95;;
72569;SDS011;60594;50.204;8.844;2023-02-26T10:45:39;1.60;;;0.82;;
72569;SDS011;60594;50.204;8.844;2023-02-26T10:48:17;2.45;;;1.00;;
72569;SDS011;60594;50.204;8.844;2023-02-26T10:50:54;2.53;;;0.93;;
72569;SDS011;60594;50.204;8.844;2023-02-26T10:53:22;2.25;;;0.80;;
72569;SDS011;60594;50.204;8.844;2023-02-26T10:56:00;2.35;;;0.90;;
72569;SDS011;60594;50.204;8.844;2023-02-26T10:58:32;2.65;;;1.00;;
72569;SDS011;60594;50.204;8.844;2023-02-26T11:00:58;2.67;;;1.13;;
72569;SDS011;60594;50.204;8.844;2023-02-26T11:03:36;3.08;;;1.50;;
72569;SDS011;60594;50.204;8.844;2023-02-26T11:06:05;2.58;;;1.05;;
72569;SDS011;60594;50.204;8.844;2023-02-26T11:08:35;2.08;;;1.02;;
72569;SDS011;60594;50.204;8.844;2023-02-26T11:11:07;1.77;;;0.55;;
72569;SDS011;60594;50.204;8.844;2023-02-26T11:13:36;2.90;;;1.10;;
72569;SDS011;60594;50.204;8.844;2023-02-26T11:16:04;3.25;;;1.02;;
72569;SDS011;60594;50.204;8.844;2023-02-26T11:18:47;1.33;;;0.82;;
72569;SDS011;60594;50.204;8.844;2023-02-26T11:21:25;0.98;;;0.60;;
72569;SDS011;60594;50.204;8.844;2023-02-26T11:24:03;2.25;;;0.90;;
72569;SDS011;60594;50.204;8.844;2023-02-26T11:26:35;2.60;;;0.90;;
72569;SDS011;60594;50.204;8.844;2023-02-26T11:29:04;1.52;;;0.80;;
72569;SDS011;60594;50.204;8.844;2023-02-26T11:31:31;1.55;;;0.90;;
72569;SDS011;60594;50.204;8.844;2023-02-26T11:34:01;2.05;;;1.08;;
72569;SDS011;60594;50.204;8.844;2023-02-26T11:36:31;1.38;;;0.80;;
72569;SDS011;60594;50.204;8.844;2023-02-26T11:39:14;2.35;;;1.13;;
72569;SDS011;60594;50.204;8.844;2023-02-26T11:41:45;3.63;;;1.00;;
72569;SDS011;60594;50.204;8.844;2023-02-26T11:44:16;2.78;;;1.10;;
72569;SDS011;60594;50.204;8.844;2023-02-26T11:46:51;2.53;;;1.00;;
72569;SDS011;60594;50.204;8.844;2023-02-26T11:49:21;3.15;;;1.83;;
72569;SDS011;60594;50.204;8.844;2023-02-26T11:54:36;1.25;;;0.70;;
72569;SDS011;60594;50.204;8.844;2023-02-26T11:57:10;1.80;;;1.00;;
72569;SDS011;60594;50.204;8.844;2023-02-26T11:59:44;1.88;;;0.70;;
72569;SDS011;60594;50.204;8.844;2023-02-26T12:02:14;1.48;;;0.60;;
72569;SDS011;60594;50.204;8.844;2023-02-26T12:04:46;1.83;;;0.75;;
72569;SDS011;60594;50.204;8.844;2023-02-26T12:07:15;2.28;;;1.17;;
72569;SDS011;60594;50.204;8.844;2023-02-26T12:09:43;1.75;;;0.80;;
72569;SDS011;60594;50.204;8.844;2023-02-26T12:18:18;1.50;;;0.70;;
72569;SDS011;60594;50.204;8.844;2023-02-26T12:26:39;2.42;;;0.80;;
72569;SDS011;60594;50.204;8.844;2023-02-26T12:51:11;1.20;;;0.55;;
72569;SDS011;60594;50.204;8.844;2023-02-26T12:59:15;1.33;;;0.52;;
72569;SDS011;60594;50.204;8.844;2023-02-26T13:09:57;1.15;;;0.65;;
72569;SDS011;60594;50.204;8.844;2023-02-26T13:15:34;2.80;;;0.82;;
72569;SDS011;60594;50.204;8.844;2023-02-26T13:20:46;1.65;;;0.70;;
72569;SDS011;60594;50.204;8.844;2023-02-26T13:23:22;1.27;;;0.70;;
72569;SDS011;60594;50.204;8.844;2023-02-26T13:25:53;2.08;;;1.40;;
72569;SDS011;60594;50.204;8.844;2023-02-26T13:28:38;3.17;;;1.40;;
72569;SDS011;60594;50.204;8.844;2023-02-26T13:31:11;1.98;;;0.90;;
72569;SDS011;60594;50.204;8.844;2023-02-26T13:33:43;3.70;;;1.00;;
72569;SDS011;60594;50.204;8.844;2023-02-26T13:36:11;2.08;;;0.77;;
72569;SDS011;60594;50.204;8.844;2023-02-26T13:41:43;1.63;;;0.80;;
72569;SDS011;60594;50.204;8.844;2023-02-26T13:44:32;1.73;;;0.70;;
72569;SDS011;60594;50.204;8.844;2023-02-26T13:53:00;2.00;;;0.82;;
72569;SDS011;60594;50.204;8.844;2023-02-26T13:55:47;1.38;;;0.60;;
72569;SDS011;60594;50.204;8.844;2023-02-26T13:58:37;1.90;;;0.60;;
72569;SDS011;60594;50.204;8.844;2023-02-26T14:01:08;1.90;;;0.85;;
72569;SDS011;60594;50.204;8.844;2023-02-26T14:03:41;1.83;;;0.90;;
72569;SDS011;60594;50.204;8.844;2023-02-26T14:11:58;1.92;;;0.85;;
72569;SDS011;60594;50.204;8.844;2023-02-26T14:25:14;1.20;;;0.80;;
72569;SDS011;60594;50.204;8.844;2023-02-26T14:27:46;1.30;;;0.70;;
72569;SDS011;60594;50.204;8.844;2023-02-26T14:30:16;2.38;;;0.70;;
72569;SDS011;60594;50.204;8.844;2023-02-26T14:35:26;1.58;;;0.70;;
72569;SDS011;60594;50.204;8.844;2023-02-26T14:37:58;1.55;;;0.80;;
72569;SDS011;60594;50.204;8.844;2023-02-26T14:40:29;1.15;;;0.65;;
72569;SDS011;60594;50.204;8.844;2023-02-26T14:43:03;2.65;;;1.00;;
72569;SDS011;60594;50.204;8.844;2023-02-26T14:45:36;1.70;;;0.90;;
72569;SDS011;60594;50.204;8.844;2023-02-26T14:48:05;1.15;;;0.60;;
72569;SDS011;60594;50.204;8.844;2023-02-26T14:56:49;2.75;;;0.93;;
72569;SDS011;60594;50.204;8.844;2023-02-26T15:02:14;1.38;;;0.65;;
72569;SDS011;60594;50.204;8.844;2023-02-26T15:04:52;2.10;;;0.82;;
72569;SDS011;60594;50.204;8.844;2023-02-26T15:13:19;1.90;;;0.70;;
72569;SDS011;60594;50.204;8.844;2023-02-26T15:22:15;1.98;;;0.80;;
72569;SDS011;60594;50.204;8.844;2023-02-26T15:25:06;1.63;;;0.60;;
72569;SDS011;60594;50.204;8.844;2023-02-26T15:27:43;1.10;;;0.60;;
72569;SDS011;60594;50.204;8.844;2023-02-26T15:30:14;2.55;;;0.80;;
72569;SDS011;60594;50.204;8.844;2023-02-26T15:32:41;2.60;;;0.90;;
72569;SDS011;60594;50.204;8.844;2023-02-26T15:35:16;1.70;;;0.70;;
72569;SDS011;60594;50.204;8.844;2023-02-26T15:38:03;2.40;;;0.70;;
72569;SDS011;60594;50.204;8.844;2023-02-26T15:40:31;1.25;;;0.65;;
72569;SDS011;60594;50.204;8.844;2023-02-26T15:43:00;2.75;;;1.08;;
72569;SDS011;60594;50.204;8.844;2023-02-26T15:45:33;2.05;;;0.80;;
72569;SDS011;60594;50.204;8.844;2023-02-26T15:48:04;4.05;;;0.73;;
72569;SDS011;60594;50.204;8.844;2023-02-26T15:50:37;1.77;;;0.70;;
72569;SDS011;60594;50.204;8.844;2023-02-26T15:53:15;1.98;;;0.95;;
72569;SDS011;60594;50.204;8.844;2023-02-26T15:55:46;1.55;;;0.80;;
72569;SDS011;60594;50.204;8.844;2023-02-26T15:58:18;1.40;;;0.60;;
72569;SDS011;60594;50.204;8.844;2023-02-26T16:00:52;3.13;;;1.63;;
72569;SDS011;60594;50.204;8.844;2023-02-26T16:03:30;1.63;;;0.80;;
72569;SDS011;60594;50.204;8.844;2023-02-26T16:05:59;3.03;;;0.70;;
72569;SDS011;60594;50.204;8.844;2023-02-26T16:08:26;1.73;;;0.90;;
72569;SDS011;60594;50.204;8.844;2023-02-26T16:10:55;2.15;;;0.82;;
72569;SDS011;60594;50.204;8.844;2023-02-26T16:13:27;1.77;;;0.93;;
72569;SDS011;60594;50.204;8.844;2023-02-26T16:18:30;1.33;;;0.60;;
72569;SDS011;60594;50.204;8.844;2023-02-26T16:21:00;2.60;;;1.00;;
72569;SDS011;60594;50.204;8.844;2023-02-26T16:23:37;2.10;;;1.00;;
72569;SDS011;60594;50.204;8.844;2023-02-26T16:26:12;1.52;;;0.80;;
72569;SDS011;60594;50.204;8.844;2023-02-26T16:28:49;1.65;;;0.85;;
72569;SDS011;60594;50.204;8.844;2023-02-26T16:31:24;1.88;;;0.85;;
72569;SDS011;60594;50.204;8.844;2023-02-26T16:33:55;2.65;;;1.38;;
72569;SDS011;60594;50.204;8.844;2023-02-26T16:36:35;2.80;;;1.15;;
72569;SDS011;60594;50.204;8.844;2023-02-26T16:41:32;2.28;;;1.05;;
72569;SDS011;60594;50.204;8.844;2023-02-26T16:44:03;2.05;;;0.85;;
72569;SDS011;60594;50.204;8.844;2023-02-26T16:46:50;2.10;;;0.88;;
72569;SDS011;60594;50.204;8.844;2023-02-26T16:49:22;1.80;;;1.08;;
72569;SDS011;60594;50.204;8.844;2023-02-26T16:51:52;2.40;;;1.00;;
72569;SDS011;60594;50.204;8.844;2023-02-26T16:54:21;2.80;;;1.35;;
72569;SDS011;60594;50.204;8.844;2023-02-26T16:56:57;4.50;;;2.35;;
72569;SDS011;60594;50.204;8.844;2023-02-26T16:59:29;2.08;;;1.10;;
72569;SDS011;60594;50.204;8.844;2023-02-26T17:01:59;1.48;;;0.80;;
72569;SDS011;60594;50.204;8.844;2023-02-26T17:04:31;2.70;;;1.50;;
72569;SDS011;60594;50.204;8.844;2023-02-26T17:07:03;3.35;;;1.30;;
72569;SDS011;60594;50.204;8.844;2023-02-26T17:09:40;1.92;;;0.90;;
72569;SDS011;60594;50.204;8.844;2023-02-26T17:12:28;3.63;;;1.50;;
72569;SDS011;60594;50.204;8.844;2023-02-26T17:15:11;3.30;;;1.30;;
72569;SDS011;60594;50.204;8.844;2023-02-26T17:17:42;4.28;;;1.50;;
72569;SDS011;60594;50.204;8.844;2023-02-26T17:20:09;4.28;;;1.83;;
72569;SDS011;60594;50.204;8.844;2023-02-26T17:22:37;2.47;;;0.93;;
72569;SDS011;60594;50.204;8.844;2023-02-26T17:25:05;3.25;;;1.40;;
72569;SDS011;60594;50.204;8.844;2023-02-26T17:27:32;2.72;;;1.20;;
72569;SDS011;60594;50.204;8.844;2023-02-26T17:30:02;3.20;;;1.33;;
72569;SDS011;60594;50.204;8.844;2023-02-26T17:32:31;2.55;;;1.02;;
72569;SDS011;60594;50.204;8.844;2023-02-26T17:34:58;3.45;;;1.20;;
72569;SDS011;60594;50.204;8.844;2023-02-26T17:37:29;3.75;;;1.40;;
72569;SDS011;60594;50.204;8.844;2023-02-26T17:39:58;2.50;;;1.17;;
72569;SDS011;60594;50.204;8.844;2023-02-26T17:42:25;2.67;;;1.33;;
72569;SDS011;60594;50.204;8.844;2023-02-26T17:44:52;4.82;;;1.63;;
72569;SDS011;60594;50.204;8.844;2023-02-26T17:47:24;3.83;;;1.90;;
72569;SDS011;60594;50.204;8.844;2023-02-26T17:49:52;4.25;;;1.85;;
72569;SDS011;60594;50.204;8.844;2023-02-26T17:52:20;5.57;;;1.40;;
72569;SDS011;60594;50.204;8.844;2023-02-26T17:54:47;2.30;;;1.00;;
72569;SDS011;60594;50.204;8.844;2023-02-26T17:57:18;2.22;;;1.10;;
72569;SDS011;60594;50.204;8.844;2023-02-26T17:59:46;2.70;;;1.00;;
72569;SDS011;60594;50.204;8.844;2023-02-26T18:02:21;3.03;;;1.33;;
72569;SDS011;60594;50.204;8.844;2023-02-26T18:04:50;3.13;;;1.25;;
72569;SDS011;60594;50.204;8.844;2023-02-26T18:07:18;3.33;;;1.48;;
72569;SDS011;60594;50.204;8.844;2023-02-26T18:09:45;3.45;;;1.13;;
72569;SDS011;60594;50.204;8.844;2023-02-26T18:12:20;3.53;;;1.67;;
72569;SDS011;60594;50.204;8.844;2023-02-26T18:14:47;2.42;;;1.20;;